createdAt,value
2022-07-27T00:03:55.249Z,5.53
2022-07-27T00:08:54.077Z,4.85
2022-07-27T00:13:54.323Z,5.70
2022-07-27T00:18:53.182Z,6.30
2022-07-27T00:23:52.006Z,4.85
2022-07-27T00:28:51.589Z,5.00
2022-07-27T00:33:51.757Z,5.20
2022-07-27T00:38:50.604Z,5.03
2022-07-27T00:43:57.168Z,5.38
2022-07-27T00:48:57.502Z,5.15
2022-07-27T00:53:56.909Z,5.53
2022-07-27T00:58:55.872Z,4.45
2022-07-27T01:03:54.832Z,5.72
2022-07-27T01:09:19.131Z,6.18
2022-07-27T01:14:18.770Z,5.38
2022-07-27T01:19:17.680Z,5.22
2022-07-27T01:24:17.898Z,5.57
2022-07-27T01:29:16.713Z,5.17
2022-07-27T01:34:15.511Z,5.40
2022-07-27T01:39:15.033Z,5.60
2022-07-27T01:44:15.583Z,5.35
2022-07-27T01:49:14.959Z,5.30
2022-07-27T01:54:14.468Z,5.25
2022-07-27T01:59:16.604Z,5.57
2022-07-27T02:04:18.395Z,4.90
2022-07-27T02:09:17.290Z,5.32
2022-07-27T02:14:16.773Z,5.47
2022-07-27T02:19:17.226Z,4.70
2022-07-27T02:24:17.340Z,5.45
2022-07-27T02:29:16.151Z,5.28
2022-07-27T02:34:16.442Z,5.70
2022-07-27T02:39:15.435Z,5.57
2022-07-27T02:44:15.348Z,5.32
2022-07-27T02:49:14.721Z,5.07
2022-07-27T02:54:15.292Z,5.05
2022-07-27T02:59:14.905Z,6.20
2022-07-27T03:04:14.182Z,5.45
2022-07-27T03:09:15.116Z,5.43
2022-07-27T03:14:14.230Z,5.80
2022-07-27T03:19:14.411Z,6.18
2022-07-27T03:24:14.788Z,5.20
2022-07-27T03:29:14.514Z,5.40
2022-07-27T03:34:14.083Z,5.80
2022-07-27T03:39:14.674Z,6.03
2022-07-27T03:44:13.772Z,5.78
2022-07-27T03:49:14.480Z,6.10
2022-07-27T03:54:15.372Z,6.15
2022-07-27T03:59:14.883Z,5.73
2022-07-27T04:04:14.210Z,6.15
2022-07-27T04:09:14.006Z,5.75
2022-07-27T04:14:14.570Z,6.85
2022-07-27T04:19:13.874Z,6.30
2022-07-27T04:24:12.864Z,6.38
2022-07-27T04:29:12.171Z,5.85
2022-07-27T04:34:14.048Z,6.82
2022-07-27T04:39:13.409Z,6.20
2022-07-27T04:44:12.546Z,6.65
2022-07-27T04:49:11.591Z,5.70
2022-07-27T04:54:12.498Z,5.90
2022-07-27T04:59:11.767Z,6.50
2022-07-27T05:04:10.858Z,5.90
2022-07-27T05:09:11.458Z,6.05
2022-07-27T05:14:10.650Z,6.50
2022-07-27T05:19:09.772Z,6.32
2022-07-27T05:24:10.277Z,5.63
2022-07-27T05:29:11.823Z,5.80
2022-07-27T05:34:10.875Z,6.13
2022-07-27T05:39:13.662Z,5.95
2022-07-27T05:44:14.226Z,7.10
2022-07-27T05:49:13.590Z,5.67
2022-07-27T05:54:12.748Z,6.15
2022-07-27T05:59:12.694Z,6.88
2022-07-27T06:04:14.726Z,6.57
2022-07-27T06:09:13.979Z,6.25
2022-07-27T06:14:13.196Z,6.00
2022-07-27T06:19:13.790Z,6.45
2022-07-27T06:24:13.020Z,7.22
2022-07-27T06:29:12.750Z,7.28
2022-07-27T06:34:13.115Z,7.10
2022-07-27T06:39:14.194Z,7.60
2022-07-27T06:44:13.397Z,7.20
2022-07-27T06:49:14.220Z,8.52
2022-07-27T06:54:13.454Z,7.72
2022-07-27T06:59:12.571Z,7.97
2022-07-27T07:04:13.577Z,7.22
2022-07-27T07:14:11.822Z,6.82
2022-07-27T07:19:10.893Z,7.68
2022-07-27T07:24:11.346Z,7.45
2022-07-27T07:29:11.556Z,7.85
2022-07-27T07:34:10.656Z,7.82
2022-07-27T07:39:09.798Z,8.25
2022-07-27T07:44:10.501Z,7.10
2022-07-27T07:49:11.173Z,8.23
2022-07-27T07:59:10.523Z,7.22
2022-07-27T08:04:11.993Z,6.60
2022-07-27T08:09:13.296Z,7.07
2022-07-27T08:14:19.031Z,6.97
2022-07-27T08:19:20.515Z,6.72
2022-07-27T08:24:19.837Z,6.68
2022-07-27T08:29:23.024Z,6.72
2022-07-27T08:34:22.271Z,7.28
2022-07-27T08:40:05.554Z,6.65
2022-07-27T08:44:42.767Z,6.53
2022-07-27T08:49:43.939Z,6.43
2022-07-27T08:54:43.399Z,6.07
2022-07-27T08:59:43.686Z,6.32
2022-07-27T09:04:43.734Z,6.72
2022-07-27T09:09:47.596Z,6.28
2022-07-27T09:14:52.895Z,6.22
2022-07-27T09:19:55.921Z,6.63
2022-07-27T09:25:03.480Z,5.88
2022-07-27T09:30:05.118Z,6.68
2022-07-27T09:35:19.538Z,6.57
2022-07-27T09:40:25.576Z,5.78
2022-07-27T09:45:36.684Z,5.30
2022-07-27T09:50:38.144Z,5.68
2022-07-27T09:55:37.080Z,5.30
2022-07-27T10:00:37.608Z,5.63
2022-07-27T10:05:36.691Z,5.38
2022-07-27T10:15:34.827Z,5.40
2022-07-27T10:20:39.585Z,5.20
2022-07-27T10:25:38.718Z,4.97
2022-07-27T10:30:37.990Z,4.80
2022-07-27T10:35:38.380Z,5.65
2022-07-27T10:40:37.218Z,5.00
2022-07-27T10:46:00.220Z,5.07
2022-07-27T10:51:02.672Z,4.95
2022-07-27T10:56:01.805Z,4.97
2022-07-27T11:01:04.021Z,5.03
2022-07-27T11:06:32.374Z,4.47
2022-07-27T11:11:27.098Z,4.70
2022-07-27T11:16:28.053Z,4.82
2022-07-27T11:21:30.270Z,4.65
2022-07-27T11:26:31.122Z,4.65
2022-07-27T11:31:54.131Z,4.80
2022-07-27T11:36:51.068Z,4.40
2022-07-27T11:42:08.352Z,4.57
2022-07-27T11:47:08.138Z,4.55
2022-07-27T11:52:10.024Z,5.20
2022-07-27T11:57:12.448Z,4.55
2022-07-27T12:02:14.121Z,4.40
2022-07-27T12:07:17.937Z,4.22
2022-07-27T12:12:19.569Z,4.93
2022-07-27T12:17:36.700Z,4.38
2022-07-27T12:22:39.506Z,4.72
2022-07-27T12:27:39.018Z,4.40
2022-07-27T12:32:44.104Z,5.22
2022-07-27T12:37:44.379Z,4.90
2022-07-27T12:42:43.313Z,5.15
2022-07-27T12:47:45.472Z,5.40
2022-07-27T12:52:49.116Z,5.00
2022-07-27T12:57:57.222Z,4.75
2022-07-27T13:02:56.464Z,5.05
2022-07-27T13:07:56.671Z,4.65
2022-07-27T13:12:55.823Z,4.95
2022-07-27T13:17:54.634Z,4.97
2022-07-27T13:22:54.142Z,4.70
2022-07-27T13:27:55.285Z,4.72
2022-07-27T13:32:54.165Z,4.40
2022-07-27T13:37:56.407Z,4.53
2022-07-27T13:42:56.594Z,5.07
2022-07-27T13:47:55.444Z,5.50
2022-07-27T13:52:54.355Z,4.53
2022-07-27T13:57:53.223Z,4.55
2022-07-27T14:02:53.402Z,5.40
2022-07-27T14:07:55.253Z,4.57
2022-07-27T14:12:58.435Z,4.82
2022-07-27T14:17:59.453Z,4.65
2022-07-27T14:22:58.276Z,4.85
2022-07-27T14:27:57.840Z,4.75
2022-07-27T14:33:02.543Z,5.18
2022-07-27T14:38:02.054Z,4.72
2022-07-27T14:43:01.201Z,4.35
2022-07-27T14:48:01.731Z,4.60
2022-07-27T14:53:00.601Z,4.45
2022-07-27T14:57:59.504Z,4.60
2022-07-27T15:02:58.442Z,4.78
2022-07-27T15:07:58.806Z,4.45
2022-07-27T15:12:57.706Z,4.63
2022-07-27T15:17:56.537Z,4.80
2022-07-27T15:22:55.524Z,4.43
2022-07-27T15:27:55.682Z,5.32
2022-07-27T15:32:54.573Z,5.63
2022-07-27T15:37:54.841Z,4.95
2022-07-27T15:42:55.353Z,5.53
2022-07-27T15:47:54.183Z,4.78
2022-07-27T15:52:52.996Z,4.55
2022-07-27T15:57:51.888Z,5.05
2022-07-27T16:02:52.286Z,5.07
2022-07-27T16:07:52.737Z,5.07
2022-07-27T16:12:51.749Z,4.65
2022-07-27T16:17:52.038Z,4.72
2022-07-27T16:22:50.979Z,5.07
2022-07-27T16:27:49.862Z,4.75
2022-07-27T16:32:50.910Z,5.45
2022-07-27T16:37:54.312Z,4.95
2022-07-27T16:42:53.244Z,4.57
2022-07-27T16:47:52.115Z,4.32
2022-07-27T16:52:52.477Z,5.32
2022-07-27T16:57:51.527Z,4.57
2022-07-27T17:02:50.379Z,4.75
2022-07-27T17:07:51.244Z,4.65
2022-07-27T17:12:53.078Z,4.80
2022-07-27T17:17:53.947Z,4.97
2022-07-27T17:22:53.394Z,6.25
2022-07-27T17:27:55.291Z,6.55
2022-07-27T17:32:54.598Z,5.90
2022-07-27T17:38:06.079Z,6.63
2022-07-27T17:43:06.682Z,7.15
2022-07-27T17:48:06.529Z,6.63
2022-07-27T17:53:05.413Z,7.57
2022-07-27T17:58:08.588Z,6.38
2022-07-27T18:03:07.481Z,7.85
2022-07-27T18:08:07.079Z,6.88
2022-07-27T18:13:08.579Z,7.43
2022-07-27T18:18:07.590Z,9.10
2022-07-27T18:23:06.448Z,6.43
2022-07-27T18:28:07.204Z,8.10
2022-07-27T18:33:06.733Z,7.93
2022-07-27T18:38:09.271Z,6.70
2022-07-27T18:43:10.790Z,5.70
2022-07-27T18:48:10.809Z,5.68
2022-07-27T18:53:12.370Z,5.07
2022-07-27T18:58:13.640Z,4.97
2022-07-27T19:03:12.649Z,5.93
2022-07-27T19:08:14.029Z,5.47
2022-07-27T19:13:14.757Z,5.63
2022-07-27T19:18:13.858Z,5.82
2022-07-27T19:23:13.466Z,6.15
2022-07-27T19:28:14.501Z,6.13
2022-07-27T19:33:14.959Z,5.57
2022-07-27T19:38:13.711Z,6.53
2022-07-27T19:43:12.575Z,6.32
2022-07-27T19:48:12.125Z,6.10
2022-07-27T19:53:12.543Z,5.77
2022-07-27T19:58:11.400Z,7.47
2022-07-27T20:03:10.221Z,5.25
2022-07-27T20:08:09.129Z,5.20
2022-07-27T20:13:09.691Z,4.90
2022-07-27T20:23:07.659Z,6.32
2022-07-27T20:28:06.575Z,6.63
2022-07-27T20:33:06.831Z,6.13
2022-07-27T20:38:06.466Z,5.78
2022-07-27T20:43:05.466Z,6.07
2022-07-27T20:48:04.483Z,5.20
2022-07-27T20:53:05.331Z,5.93
2022-07-27T20:58:04.141Z,5.20
2022-07-27T21:03:03.025Z,5.80
2022-07-27T21:08:01.877Z,5.28
2022-07-27T21:13:02.394Z,5.05
2022-07-27T21:18:01.425Z,5.30
2022-07-27T21:23:17.644Z,5.63
2022-07-27T21:28:23.057Z,5.78
2022-07-27T21:33:24.019Z,6.00
2022-07-27T21:38:22.921Z,6.40
2022-07-27T21:43:23.301Z,5.63
2022-07-27T21:48:22.924Z,5.63
2022-07-27T21:53:21.788Z,7.63
2022-07-27T21:58:22.073Z,6.22
2022-07-27T22:03:21.337Z,5.55
2022-07-27T22:08:20.243Z,6.47
2022-07-27T22:13:19.014Z,7.90
2022-07-27T22:18:19.336Z,7.47
2022-07-27T22:23:18.271Z,8.80
2022-07-27T22:28:17.047Z,8.65
2022-07-27T22:33:15.957Z,7.80
2022-07-27T22:38:16.166Z,6.13
2022-07-27T22:43:15.687Z,6.83
2022-07-27T22:48:15.121Z,5.78
2022-07-27T22:53:15.560Z,4.97
2022-07-27T22:58:14.390Z,6.50
2022-07-27T23:03:13.213Z,6.30
2022-07-27T23:08:11.972Z,6.13
2022-07-27T23:13:12.926Z,6.03
2022-07-27T23:18:12.761Z,6.20
2022-07-27T23:23:15.734Z,5.70
2022-07-27T23:28:17.967Z,5.60
2022-07-27T23:38:15.664Z,5.80
2022-07-27T23:43:14.519Z,6.22
2022-07-27T23:48:14.665Z,5.07
2022-07-27T23:53:13.652Z,5.87
2022-07-27T23:58:12.452Z,5.68
